Time;durP1;ratioP1;P1;durP2;ratioP2;P2;SDS_P1;SDS_P2;PMS_P1;PMS_P2;Temp;Humidity;BMP_temperature;BMP_pressure;BME280_temperature;BME280_humidity;BME280_pressure;Samples;Min_cycle;Max_cycle;Signal;HPM_P1;HPM_P2
2022/04/02 00:02:06;;;;;;;;;;;2.20;99.90;;;;;;5073694;28;20443;-56
2022/04/02 00:04:34;;;;;;;;;;;2.00;99.90;;;;;;5073917;28;20301;-56
2022/04/02 00:07:02;;;;;;;;;;;2.00;99.90;;;;;;5061270;28;19925;-57
2022/04/02 00:09:28;;;;;;;;;;;1.90;99.90;;;;;;5061661;28;19931;-56
2022/04/02 00:11:55;;;;;;;;;;;2.00;99.90;;;;;;5077293;28;19969;-56
2022/04/02 00:14:22;;;;;;;;;;;1.90;99.90;;;;;;5073786;28;19995;-56
2022/04/02 00:16:49;;;;;;;;;;;1.90;99.90;;;;;;5073152;28;19970;-56
2022/04/02 00:19:16;;;;;;;;;;;1.80;99.90;;;;;;5077493;28;19935;-55
2022/04/02 00:21:44;;;;;;;;;;;1.70;99.90;;;;;;5073723;28;20034;-55
2022/04/02 00:24:11;;;;;;;;;;;1.90;99.90;;;;;;5074307;28;19950;-56
2022/04/02 00:26:38;;;;;;;;;;;1.70;99.90;;;;;;5074568;28;19924;-55
2022/04/02 00:29:06;;;;;;;;;;;1.70;99.90;;;;;;5075469;28;20333;-55
2022/04/02 00:31:33;;;;;;;;;;;1.70;99.90;;;;;;5074468;28;19985;-55
2022/04/02 00:34:01;;;;;;;;;;;1.50;99.90;;;;;;5073524;28;20473;-56
2022/04/02 00:36:28;;;;;;;;;;;1.50;99.90;;;;;;5080135;28;19993;-55
2022/04/02 00:38:56;;;;;;;;;;;1.50;99.90;;;;;;5079266;28;19925;-56
2022/04/02 00:41:23;;;;;;;;;;;1.60;99.90;;;;;;5075180;28;20267;-56
2022/04/02 00:43:59;;;;;;;;;;;1.50;99.90;;;;;;5079668;28;19928;-56
2022/04/02 00:46:26;;;;;;;;;;;1.60;99.90;;;;;;5080715;28;19932;-56
2022/04/02 00:48:54;;;;;;;;;;;1.50;99.90;;;;;;5073298;28;19931;-55
2022/04/02 00:51:22;;;;;;;;;;;1.40;99.90;;;;;;5072541;28;19970;-56
2022/04/02 00:53:50;;;;;;;;;;;1.40;99.90;;;;;;5072551;28;19928;-55
2022/04/02 00:56:20;;;;;;;;;;;1.30;99.90;;;;;;5057947;28;19950;-56
2022/04/02 00:58:46;;;;;;;;;;;1.20;99.90;;;;;;5071115;28;20321;-55
2022/04/02 01:01:13;;;;;;;;;;;1.30;99.90;;;;;;5074050;28;20359;-56
2022/04/02 01:03:43;;;;;;;;;;;1.30;99.90;;;;;;5079960;28;20378;-56
2022/04/02 01:06:14;;;;;;;;;;;1.30;99.90;;;;;;5068895;28;19948;-55
2022/04/02 01:08:41;;;;;;;;;;;1.30;99.90;;;;;;5072361;28;19932;-57
2022/04/02 01:11:08;;;;;;;;;;;1.30;99.90;;;;;;5065906;28;19925;-55
2022/04/02 01:13:36;;;;;;;;;;;1.60;99.90;;;;;;5058111;28;20019;-55
2022/04/02 01:16:03;;;;;;;;;;;1.60;99.90;;;;;;5052259;28;19928;-56
2022/04/02 01:18:30;;;;;;;;;;;1.50;99.90;;;;;;5052854;28;19998;-56
2022/04/02 01:20:58;;;;;;;;;;;1.50;99.90;;;;;;5069692;28;19933;-56
2022/04/02 01:23:29;;;;;;;;;;;1.50;99.90;;;;;;5077455;28;20433;-55
2022/04/02 01:25:57;;;;;;;;;;;1.40;99.90;;;;;;5072537;28;20351;-56
2022/04/02 01:28:24;;;;;;;;;;;1.30;99.90;;;;;;5061025;28;19932;-56
2022/04/02 01:30:51;;;;;;;;;;;1.30;99.90;;;;;;5063039;28;19925;-56
2022/04/02 01:33:18;;;;;;;;;;;1.40;99.90;;;;;;5081441;28;19947;-55
2022/04/02 01:35:45;;;;;;;;;;;1.50;99.90;;;;;;5075946;28;19932;-55
2022/04/02 01:38:11;;;;;;;;;;;1.70;99.90;;;;;;5076272;28;20007;-55
2022/04/02 01:40:40;;;;;;;;;;;1.60;99.90;;;;;;5075651;28;20282;-55
2022/04/02 01:43:07;;;;;;;;;;;1.40;99.90;;;;;;5073167;28;20209;-55
2022/04/02 01:45:34;;;;;;;;;;;1.30;99.90;;;;;;5057475;28;19975;-55
2022/04/02 01:48:00;;;;;;;;;;;1.40;99.90;;;;;;5080457;28;19924;-55
2022/04/02 01:50:27;;;;;;;;;;;1.30;99.90;;;;;;5071575;28;19932;-55
2022/04/02 01:52:54;;;;;;;;;;;1.20;99.90;;;;;;5077183;28;19924;-55
2022/04/02 01:55:21;;;;;;;;;;;1.10;99.90;;;;;;5078687;28;19924;-56
2022/04/02 01:57:49;;;;;;;;;;;1.20;99.90;;;;;;5073172;28;20020;-56
2022/04/02 02:00:16;;;;;;;;;;;1.20;99.90;;;;;;5068492;28;20382;-56
2022/04/02 02:02:43;;;;;;;;;;;1.20;99.90;;;;;;5077308;28;20361;-56
2022/04/02 02:05:10;;;;;;;;;;;1.20;99.90;;;;;;5055958;28;19925;-56
2022/04/02 02:07:37;;;;;;;;;;;1.30;99.90;;;;;;5064447;28;19935;-56
2022/04/02 02:10:04;;;;;;;;;;;1.40;99.90;;;;;;5076537;28;19982;-56
2022/04/02 02:12:31;;;;;;;;;;;1.50;99.90;;;;;;5083881;28;20220;-56
2022/04/02 02:14:59;;;;;;;;;;;1.30;99.90;;;;;;5066609;28;19924;-56
2022/04/02 02:17:25;;;;;;;;;;;1.50;99.90;;;;;;5071136;28;19945;-55
2022/04/02 02:19:52;;;;;;;;;;;1.50;99.90;;;;;;5078332;28;20348;-56
2022/04/02 02:22:19;;;;;;;;;;;1.30;99.90;;;;;;5075495;28;20386;-56
2022/04/02 02:24:46;;;;;;;;;;;1.30;99.90;;;;;;5075520;28;19978;-56
2022/04/02 02:27:12;;;;;;;;;;;1.30;99.90;;;;;;5073679;28;19974;-56
2022/04/02 02:29:39;;;;;;;;;;;1.30;99.90;;;;;;5076874;28;19924;-56
2022/04/02 02:32:08;;;;;;;;;;;1.00;99.90;;;;;;5075897;28;19928;-56
2022/04/02 02:37:19;;;;;;;;;;;1.30;99.90;;;;;;5079210;28;19943;-56
2022/04/02 02:39:46;;;;;;;;;;;1.20;99.90;;;;;;5073960;28;20386;-56
2022/04/02 02:42:13;;;;;;;;;;;1.00;99.90;;;;;;5076040;28;20390;-57
2022/04/02 02:44:40;;;;;;;;;;;1.10;99.90;;;;;;5071536;28;22949;-56
2022/04/02 02:47:08;;;;;;;;;;;1.10;99.90;;;;;;5073942;28;20463;-56
2022/04/02 02:49:35;;;;;;;;;;;1.10;99.90;;;;;;5075101;28;20075;-56
2022/04/02 02:52:01;;;;;;;;;;;1.30;99.90;;;;;;5075187;28;20385;-56
2022/04/02 02:54:28;;;;;;;;;;;1.30;99.90;;;;;;5074369;28;20394;-56
2022/04/02 02:56:55;;;;;;;;;;;1.10;99.90;;;;;;5073347;28;19928;-56
2022/04/02 02:59:22;;;;;;;;;;;1.10;99.90;;;;;;5071192;28;19924;-56
2022/04/02 03:01:49;;;;;;;;;;;1.30;99.90;;;;;;5074055;28;20031;-56
2022/04/02 03:04:18;;;;;;;;;;;1.30;99.90;;;;;;5080771;28;19928;-56
2022/04/02 03:06:45;;;;;;;;;;;1.30;99.90;;;;;;5075318;28;20015;-56
2022/04/02 03:09:12;;;;;;;;;;;1.10;99.90;;;;;;5073654;28;19931;-56
2022/04/02 03:11:38;;;;;;;;;;;1.10;99.90;;;;;;5074086;28;19928;-56
2022/04/02 03:14:05;;;;;;;;;;;1.10;99.90;;;;;;5073808;28;20381;-56
2022/04/02 03:16:32;;;;;;;;;;;1.10;99.90;;;;;;5073720;28;20345;-56
2022/04/02 03:19:00;;;;;;;;;;;1.20;99.90;;;;;;5074095;28;19978;-56
2022/04/02 03:21:28;;;;;;;;;;;1.10;99.90;;;;;;5072895;28;19924;-56
2022/04/02 03:23:55;;;;;;;;;;;1.00;99.90;;;;;;5074139;28;19960;-56
2022/04/02 03:26:22;;;;;;;;;;;1.00;99.90;;;;;;5073648;28;19940;-56
2022/04/02 03:28:49;;;;;;;;;;;1.10;99.90;;;;;;5068807;28;19932;-56
2022/04/02 03:31:17;;;;;;;;;;;1.10;99.90;;;;;;5072668;28;19978;-56
2022/04/02 03:33:44;;;;;;;;;;;1.10;99.90;;;;;;5073707;28;19970;-56
2022/04/02 03:36:14;;;;;;;;;;;1.10;99.90;;;;;;5072545;28;19924;-56
2022/04/02 03:38:42;;;;;;;;;;;1.10;99.90;;;;;;5073091;28;20031;-56
2022/04/02 03:41:09;;;;;;;;;;;1.10;99.90;;;;;;5072558;28;19936;-56
2022/04/02 03:43:36;;;;;;;;;;;1.20;99.90;;;;;;5073315;28;19971;-56
2022/04/02 03:48:47;;;;;;;;;;;1.10;99.90;;;;;;5071291;28;19973;-56
2022/04/02 03:51:14;;;;;;;;;;;1.20;99.90;;;;;;5074584;28;19928;-56
2022/04/02 03:53:43;;;;;;;;;;;1.30;99.90;;;;;;5073247;28;19928;-56
2022/04/02 03:56:10;;;;;;;;;;;1.30;99.90;;;;;;5067811;28;20400;-56
2022/04/02 03:58:37;;;;;;;;;;;1.20;99.90;;;;;;5072747;28;20425;-56
2022/04/02 04:01:04;;;;;;;;;;;1.20;99.90;;;;;;5072060;28;19925;-56
2022/04/02 04:03:31;;;;;;;;;;;1.30;99.90;;;;;;5072651;28;20461;-56
2022/04/02 04:05:57;;;;;;;;;;;1.10;99.90;;;;;;5072586;28;19936;-56
2022/04/02 04:08:24;;;;;;;;;;;1.20;99.90;;;;;;5072839;28;20439;-56
2022/04/02 04:10:53;;;;;;;;;;;1.30;99.90;;;;;;5073007;28;19986;-56
2022/04/02 04:13:20;;;;;;;;;;;1.40;99.90;;;;;;5072264;28;19928;-56
2022/04/02 04:15:47;;;;;;;;;;;1.20;99.90;;;;;;5072710;28;19932;-57
2022/04/02 04:18:13;;;;;;;;;;;1.40;99.90;;;;;;5073146;28;19925;-56
2022/04/02 04:20:40;;;;;;;;;;;1.40;99.90;;;;;;5076194;28;19970;-56
2022/04/02 04:23:07;;;;;;;;;;;1.30;99.90;;;;;;5073720;28;20457;-56
2022/04/02 04:25:34;;;;;;;;;;;1.40;99.90;;;;;;5061394;28;19947;-56
2022/04/02 04:28:02;;;;;;;;;;;1.30;99.90;;;;;;5074336;28;19924;-56
2022/04/02 04:30:29;;;;;;;;;;;1.10;99.90;;;;;;5073883;28;20015;-56
2022/04/02 04:32:57;;;;;;;;;;;1.20;99.90;;;;;;5086747;28;19924;-56
2022/04/02 04:35:24;;;;;;;;;;;1.20;99.90;;;;;;5075660;28;19931;-56
2022/04/02 04:37:51;;;;;;;;;;;1.10;99.90;;;;;;5075729;28;20002;-56
2022/04/02 04:40:18;;;;;;;;;;;1.20;99.90;;;;;;5075943;28;20019;-56
2022/04/02 04:42:45;;;;;;;;;;;1.20;99.90;;;;;;5072778;28;19932;-56
2022/04/02 04:45:13;;;;;;;;;;;1.20;99.90;;;;;;5075324;28;19932;-56
2022/04/02 04:47:44;;;;;;;;;;;1.10;99.90;;;;;;5078967;28;19978;-56
2022/04/02 04:50:11;;;;;;;;;;;0.90;99.90;;;;;;5074027;28;19978;-56
2022/04/02 04:52:38;;;;;;;;;;;1.00;99.90;;;;;;5089350;28;19931;-56
2022/04/02 04:55:06;;;;;;;;;;;1.20;99.90;;;;;;5080542;28;20026;-56
2022/04/02 04:57:32;;;;;;;;;;;1.10;99.90;;;;;;5085560;28;19924;-56
2022/04/02 04:59:59;;;;;;;;;;;1.10;99.90;;;;;;5073723;28;19932;-55
2022/04/02 05:02:27;;;;;;;;;;;1.00;99.90;;;;;;5076644;28;19977;-56
2022/04/02 05:04:54;;;;;;;;;;;1.10;99.90;;;;;;5076985;28;20400;-56
2022/04/02 05:07:21;;;;;;;;;;;1.20;99.90;;;;;;5088199;28;20405;-56
2022/04/02 05:09:47;;;;;;;;;;;1.20;99.90;;;;;;5079485;28;20382;-56
2022/04/02 05:12:15;;;;;;;;;;;1.20;99.90;;;;;;5092395;28;19989;-56
2022/04/02 05:14:42;;;;;;;;;;;1.30;99.90;;;;;;5079690;28;19977;-56
2022/04/02 05:17:09;;;;;;;;;;;1.40;99.90;;;;;;5113387;22;19928;-50
2022/04/02 05:19:37;;;;;;;;;;;1.30;99.90;;;;;;5089462;28;19924;-51
2022/04/02 05:22:04;;;;;;;;;;;1.40;99.90;;;;;;5094761;28;19924;-50
2022/04/02 05:24:30;;;;;;;;;;;1.40;99.90;;;;;;5095436;28;19924;-51
2022/04/02 05:26:57;;;;;;;;;;;1.40;99.90;;;;;;5095064;28;20003;-51
2022/04/02 05:29:25;;;;;;;;;;;1.50;99.90;;;;;;5094404;28;19931;-50
2022/04/02 05:31:51;;;;;;;;;;;1.60;99.90;;;;;;5095453;28;20010;-50
2022/04/02 05:34:18;;;;;;;;;;;1.70;99.90;;;;;;5085801;28;19935;-50
2022/04/02 05:36:46;;;;;;;;;;;1.80;99.90;;;;;;5094897;28;19969;-50
2022/04/02 05:39:13;;;;;;;;;;;1.50;99.90;;;;;;5090493;28;20052;-51
2022/04/02 05:41:40;;;;;;;;;;;1.40;99.90;;;;;;5081713;28;19924;-50
2022/04/02 05:44:07;;;;;;;;;;;1.50;99.90;;;;;;5086252;28;19977;-51
2022/04/02 05:46:34;;;;;;;;;;;1.60;99.90;;;;;;5092824;28;19931;-50
2022/04/02 05:49:01;;;;;;;;;;;1.50;99.90;;;;;;5091867;28;19924;-50
2022/04/02 05:51:28;;;;;;;;;;;1.50;99.90;;;;;;5085651;28;19928;-51
2022/04/02 05:54:13;;;;;;;;;;;1.60;99.90;;;;;;5093370;28;19936;-50
2022/04/02 05:56:42;;;;;;;;;;;1.60;99.90;;;;;;5088688;28;19928;-51
2022/04/02 05:59:09;;;;;;;;;;;1.60;99.90;;;;;;5075652;28;19932;-51
2022/04/02 06:01:36;;;;;;;;;;;1.70;99.90;;;;;;5074098;28;20328;-51
2022/04/02 06:04:03;;;;;;;;;;;1.80;99.90;;;;;;5081812;28;19924;-50
2022/04/02 06:06:30;;;;;;;;;;;1.90;99.90;;;;;;5092029;28;20019;-50
2022/04/02 06:08:57;;;;;;;;;;;1.60;99.90;;;;;;5091954;28;20015;-50
2022/04/02 06:11:24;;;;;;;;;;;1.60;99.90;;;;;;5089033;28;19978;-51
2022/04/02 06:13:52;;;;;;;;;;;1.70;99.90;;;;;;5087015;28;20390;-51
2022/04/02 06:16:19;;;;;;;;;;;1.60;99.90;;;;;;5091610;28;20018;-50
2022/04/02 06:18:46;;;;;;;;;;;1.90;99.90;;;;;;5089912;28;19929;-51
2022/04/02 06:21:12;;;;;;;;;;;1.90;99.90;;;;;;5093590;28;19924;-50
2022/04/02 06:23:39;;;;;;;;;;;2.10;99.90;;;;;;5092032;28;19932;-50
2022/04/02 06:26:06;;;;;;;;;;;2.10;99.90;;;;;;5076431;28;19930;-50
2022/04/02 06:28:33;;;;;;;;;;;2.40;99.90;;;;;;5073876;28;19964;-51
2022/04/02 06:31:01;;;;;;;;;;;2.00;99.90;;;;;;5085111;28;19929;-51
2022/04/02 06:33:27;;;;;;;;;;;2.10;99.90;;;;;;5084239;28;19928;-51
2022/04/02 06:35:54;;;;;;;;;;;2.10;99.90;;;;;;5091106;28;20344;-50
2022/04/02 06:38:21;;;;;;;;;;;2.10;99.90;;;;;;5079995;28;19928;-49
2022/04/02 06:40:50;;;;;;;;;;;2.20;99.90;;;;;;5076020;28;19924;-51
2022/04/02 06:43:17;;;;;;;;;;;2.50;99.90;;;;;;5079747;28;19972;-50
2022/04/02 06:45:44;;;;;;;;;;;2.50;99.90;;;;;;5073776;28;19970;-50
2022/04/02 06:48:13;;;;;;;;;;;2.50;99.90;;;;;;5074015;28;19948;-50
2022/04/02 06:50:40;;;;;;;;;;;2.60;99.90;;;;;;5077487;28;19936;-50
2022/04/02 06:53:07;;;;;;;;;;;2.50;99.90;;;;;;5080322;28;19924;-51
2022/04/02 06:55:34;;;;;;;;;;;2.70;99.90;;;;;;5081624;28;20271;-50
2022/04/02 06:58:01;;;;;;;;;;;2.80;99.90;;;;;;5076186;28;19928;-50
2022/04/02 07:00:27;;;;;;;;;;;3.10;99.90;;;;;;5089768;28;19932;-50
2022/04/02 07:02:54;;;;;;;;;;;3.00;99.90;;;;;;5088817;28;19924;-51
2022/04/02 07:05:23;;;;;;;;;;;3.50;99.90;;;;;;5086157;28;19929;-51
2022/04/02 07:07:50;;;;;;;;;;;3.70;99.90;;;;;;5086706;28;19932;-50
2022/04/02 07:10:17;;;;;;;;;;;3.90;99.90;;;;;;5084756;28;20297;-51
2022/04/02 07:12:44;;;;;;;;;;;4.10;99.90;;;;;;5087594;28;20340;-52
2022/04/02 07:15:11;;;;;;;;;;;4.20;99.90;;;;;;5092121;28;19924;-51
2022/04/02 07:17:38;;;;;;;;;;;4.00;99.90;;;;;;5084021;28;20581;-50
2022/04/02 07:20:07;;;;;;;;;;;3.80;99.90;;;;;;5084203;28;20014;-50
2022/04/02 07:22:36;;;;;;;;;;;4.10;99.90;;;;;;5088614;28;19924;-50
2022/04/02 07:25:04;;;;;;;;;;;4.20;99.90;;;;;;5091294;28;19977;-51
2022/04/02 07:27:31;;;;;;;;;;;3.70;99.90;;;;;;5075897;28;19934;-51
2022/04/02 07:29:58;;;;;;;;;;;3.40;99.90;;;;;;5080954;28;19928;-49
2022/04/02 07:32:25;;;;;;;;;;;3.50;99.90;;;;;;5083105;28;20031;-49
2022/04/02 07:34:52;;;;;;;;;;;3.60;99.90;;;;;;5091419;28;19924;-49
2022/04/02 07:37:22;;;;;;;;;;;3.50;99.90;;;;;;5089004;28;19924;-49
2022/04/02 07:39:54;;;;;;;;;;;2.90;99.90;;;;;;5090120;28;20347;-49
2022/04/02 07:42:22;;;;;;;;;;;2.40;99.90;;;;;;5076221;28;19984;-50
2022/04/02 07:44:58;;;;;;;;;;;2.50;99.90;;;;;;5075088;28;19954;-49
2022/04/02 07:47:29;;;;;;;;;;;2.40;99.90;;;;;;5078720;28;19967;-50
2022/04/02 07:49:59;;;;;;;;;;;2.50;99.90;;;;;;5073505;28;19924;-49
2022/04/02 07:52:28;;;;;;;;;;;2.50;99.90;;;;;;5077683;28;20322;-49
2022/04/02 07:54:57;;;;;;;;;;;2.60;99.90;;;;;;5080875;28;19924;-50
2022/04/02 07:57:25;;;;;;;;;;;2.60;99.90;;;;;;5079489;28;19985;-50
2022/04/02 07:59:56;;;;;;;;;;;3.00;99.90;;;;;;5072440;28;20388;-49
2022/04/02 08:02:39;;;;;;;;;;;3.00;99.90;;;;;;5075236;28;19928;-50
2022/04/02 08:05:07;;;;;;;;;;;3.10;99.90;;;;;;5088573;28;20491;-50
2022/04/02 08:07:34;;;;;;;;;;;3.20;99.90;;;;;;5082409;28;19933;-50
2022/04/02 08:10:05;;;;;;;;;;;3.60;99.90;;;;;;5078702;28;20021;-50
2022/04/02 08:12:33;;;;;;;;;;;3.50;99.90;;;;;;5079298;28;19924;-51
2022/04/02 08:15:02;;;;;;;;;;;3.50;99.90;;;;;;5087490;28;19924;-51
2022/04/02 08:17:30;;;;;;;;;;;3.50;99.90;;;;;;5079399;28;19928;-50
2022/04/02 08:19:58;;;;;;;;;;;3.60;99.90;;;;;;5072203;28;19939;-50
2022/04/02 08:22:25;;;;;;;;;;;3.40;99.90;;;;;;5089018;28;20344;-50
2022/04/02 08:24:52;;;;;;;;;;;3.20;99.90;;;;;;5086051;28;20380;-49
2022/04/02 08:27:27;;;;;;;;;;;3.10;99.90;;;;;;5076325;28;20019;-50
2022/04/02 08:29:59;;;;;;;;;;;3.30;99.90;;;;;;5073741;28;20627;-50
2022/04/02 08:32:31;;;;;;;;;;;3.30;99.90;;;;;;5073171;28;20011;-51
2022/04/02 08:35:02;;;;;;;;;;;3.30;99.90;;;;;;5075739;28;20562;-50
2022/04/02 08:37:30;;;;;;;;;;;3.30;99.90;;;;;;5070897;28;19990;-51
2022/04/02 08:40:01;;;;;;;;;;;3.50;99.90;;;;;;5072675;28;19925;-50
2022/04/02 08:42:43;;;;;;;;;;;3.50;99.90;;;;;;5077681;28;19931;-50
2022/04/02 08:45:12;;;;;;;;;;;3.80;99.90;;;;;;5062813;28;19985;-50
2022/04/02 08:48:02;;;;;;;;;;;3.80;99.90;;;;;;5073601;28;19978;-51
2022/04/02 08:50:30;;;;;;;;;;;3.80;99.90;;;;;;5090548;28;19993;-50
2022/04/02 08:52:57;;;;;;;;;;;3.50;99.90;;;;;;5089170;28;19928;-51
2022/04/02 08:55:31;;;;;;;;;;;3.40;99.90;;;;;;5078134;28;19928;-49
2022/04/02 08:58:04;;;;;;;;;;;3.10;99.90;;;;;;5082326;28;19960;-49
2022/04/02 09:00:35;;;;;;;;;;;3.10;99.90;;;;;;5089720;28;19978;-49
2022/04/02 09:03:21;;;;;;;;;;;3.30;99.90;;;;;;5091131;28;20003;-50
2022/04/02 09:05:55;;;;;;;;;;;3.20;99.90;;;;;;5083841;28;19932;-50
2022/04/02 09:08:43;;;;;;;;;;;3.30;99.90;;;;;;5084280;28;20015;-49
2022/04/02 09:11:22;;;;;;;;;;;3.20;99.90;;;;;;5084490;28;19924;-50
2022/04/02 09:14:01;;;;;;;;;;;3.30;99.90;;;;;;5090747;28;20023;-50
2022/04/02 09:16:34;;;;;;;;;;;3.40;99.90;;;;;;5072954;28;20004;-49
2022/04/02 09:19:12;;;;;;;;;;;3.40;99.90;;;;;;5087281;28;19936;-50
2022/04/02 09:21:50;;;;;;;;;;;3.40;99.90;;;;;;5076420;28;19930;-50
2022/04/02 09:24:30;;;;;;;;;;;3.60;99.90;;;;;;5088675;28;19928;-49
2022/04/02 09:27:24;;;;;;;;;;;3.60;99.90;;;;;;5085400;28;19960;-50
2022/04/02 09:30:01;;;;;;;;;;;3.70;99.90;;;;;;5079330;28;20409;-48
2022/04/02 09:32:43;;;;;;;;;;;3.60;99.90;;;;;;5086276;28;20038;-49
2022/04/02 09:35:30;;;;;;;;;;;3.80;99.90;;;;;;5085260;28;20389;-50
2022/04/02 09:38:15;;;;;;;;;;;3.60;99.90;;;;;;5079716;28;19978;-50
2022/04/02 09:40:45;;;;;;;;;;;3.50;99.90;;;;;;5081121;28;19928;-49
2022/04/02 09:43:18;;;;;;;;;;;3.70;99.90;;;;;;5089620;28;19928;-50
2022/04/02 09:45:49;;;;;;;;;;;3.70;99.90;;;;;;5088416;28;19993;-50
2022/04/02 09:48:24;;;;;;;;;;;3.50;99.90;;;;;;5090060;28;19932;-50
2022/04/02 09:50:55;;;;;;;;;;;3.70;99.90;;;;;;5074829;28;19924;-49
2022/04/02 09:53:25;;;;;;;;;;;3.50;99.90;;;;;;5088872;28;19932;-50
2022/04/02 09:55:57;;;;;;;;;;;3.30;99.90;;;;;;5092335;28;19924;-48
2022/04/02 09:58:42;;;;;;;;;;;3.30;99.90;;;;;;5091769;28;19924;-51
2022/04/02 10:01:11;;;;;;;;;;;3.30;99.90;;;;;;5079118;28;19931;-50
2022/04/02 10:03:41;;;;;;;;;;;3.40;99.90;;;;;;5074874;28;19943;-50
2022/04/02 10:06:23;;;;;;;;;;;3.60;99.90;;;;;;5093556;28;19947;-50
2022/04/02 10:08:58;;;;;;;;;;;4.20;99.90;;;;;;5090976;28;19924;-49
2022/04/02 10:11:27;;;;;;;;;;;4.30;99.90;;;;;;5091146;28;19975;-51
2022/04/02 10:13:57;;;;;;;;;;;4.70;99.90;;;;;;5093875;28;20377;-51
2022/04/02 10:16:26;;;;;;;;;;;4.90;99.90;;;;;;5092977;28;19935;-52
2022/04/02 10:18:53;;;;;;;;;;;4.80;99.90;;;;;;5080515;28;19928;-50
2022/04/02 10:21:20;;;;;;;;;;;4.20;99.90;;;;;;5089811;28;19959;-51
2022/04/02 10:23:51;;;;;;;;;;;3.80;99.90;;;;;;5092524;28;20327;-50
2022/04/02 10:26:20;;;;;;;;;;;3.90;99.90;;;;;;5080477;28;19929;-50
2022/04/02 10:28:49;;;;;;;;;;;4.20;99.90;;;;;;5089238;28;20510;-50
2022/04/02 10:31:23;;;;;;;;;;;4.50;99.90;;;;;;5093999;28;19989;-50
2022/04/02 10:33:53;;;;;;;;;;;4.40;99.90;;;;;;5093770;28;19963;-51
2022/04/02 10:36:22;;;;;;;;;;;4.10;99.90;;;;;;5091691;28;19959;-50
2022/04/02 10:38:51;;;;;;;;;;;3.90;99.90;;;;;;5090804;28;19975;-50
2022/04/02 10:41:19;;;;;;;;;;;4.00;99.90;;;;;;5092626;28;19924;-50
2022/04/02 10:43:51;;;;;;;;;;;4.00;99.90;;;;;;5085893;28;19950;-50
2022/04/02 10:46:23;;;;;;;;;;;4.30;99.90;;;;;;5092429;28;19924;-50
2022/04/02 10:48:55;;;;;;;;;;;4.00;99.90;;;;;;5089292;28;20262;-51
2022/04/02 10:51:23;;;;;;;;;;;3.70;99.90;;;;;;5093375;28;19924;-50
2022/04/02 10:53:51;;;;;;;;;;;3.30;99.90;;;;;;5091446;28;20369;-51
2022/04/02 10:56:22;;;;;;;;;;;3.10;99.90;;;;;;5085812;28;19928;-51
2022/04/02 10:58:49;;;;;;;;;;;3.20;99.90;;;;;;5081622;28;19936;-49
2022/04/02 11:01:18;;;;;;;;;;;3.10;99.90;;;;;;5086239;28;20385;-50
2022/04/02 11:03:48;;;;;;;;;;;2.80;99.90;;;;;;5091725;28;19924;-50
2022/04/02 11:06:34;;;;;;;;;;;2.80;99.90;;;;;;5084586;28;20039;-51
2022/04/02 11:09:01;;;;;;;;;;;2.60;99.90;;;;;;5089864;28;20412;-51
2022/04/02 11:11:30;;;;;;;;;;;2.60;99.90;;;;;;5092811;28;20381;-49
2022/04/02 11:14:02;;;;;;;;;;;2.90;99.90;;;;;;5090756;28;20386;-49
2022/04/02 11:16:40;;;;;;;;;;;2.70;99.90;;;;;;5085146;28;19935;-50
2022/04/02 11:21:57;;;;;;;;;;;2.70;99.90;;;;;;5089364;28;19947;-57
2022/04/02 11:24:26;;;;;;;;;;;2.80;99.90;;;;;;5085466;28;19933;-57
2022/04/02 11:26:56;;;;;;;;;;;3.00;99.90;;;;;;5094046;28;20016;-57
2022/04/02 11:29:24;;;;;;;;;;;3.00;99.90;;;;;;5096951;28;19946;-57
2022/04/02 11:31:51;;;;;;;;;;;3.00;99.90;;;;;;5090805;28;19924;-57
2022/04/02 11:34:19;;;;;;;;;;;3.10;99.90;;;;;;5089184;28;19970;-57
2022/04/02 11:36:47;;;;;;;;;;;3.20;99.90;;;;;;5089075;28;19928;-57
2022/04/02 11:39:17;;;;;;;;;;;3.30;99.90;;;;;;5088195;28;19928;-56
2022/04/02 11:41:45;;;;;;;;;;;3.50;99.90;;;;;;5081890;28;19932;-55
2022/04/02 11:44:14;;;;;;;;;;;3.30;99.90;;;;;;5089971;28;19924;-55
2022/04/02 11:46:53;;;;;;;;;;;3.20;99.90;;;;;;5085260;28;20396;-56
2022/04/02 11:49:26;;;;;;;;;;;3.10;99.90;;;;;;5085266;28;19924;-57
2022/04/02 11:52:00;;;;;;;;;;;3.00;99.90;;;;;;5088131;28;21146;-55
2022/04/02 11:54:27;;;;;;;;;;;3.30;99.90;;;;;;5089049;28;19939;-56
2022/04/02 11:57:06;;;;;;;;;;;3.30;99.90;;;;;;5080567;28;19924;-56
2022/04/02 11:59:35;;;;;;;;;;;3.30;99.90;;;;;;5084616;28;19924;-56
2022/04/02 12:02:02;;;;;;;;;;;3.20;99.90;;;;;;5083571;28;20011;-55
2022/04/02 12:04:28;;;;;;;;;;;3.10;99.90;;;;;;5081563;28;19978;-56
2022/04/02 12:07:06;;;;;;;;;;;3.10;99.90;;;;;;5081925;28;19924;-56
2022/04/02 12:09:33;;;;;;;;;;;3.20;99.90;;;;;;5083447;28;20572;-55
2022/04/02 12:12:01;;;;;;;;;;;3.20;99.90;;;;;;5086859;28;19960;-56
2022/04/02 12:14:32;;;;;;;;;;;3.20;99.90;;;;;;5082122;28;19924;-55
2022/04/02 12:17:02;;;;;;;;;;;3.10;99.90;;;;;;5091118;28;19924;-56
2022/04/02 12:19:38;;;;;;;;;;;3.00;99.90;;;;;;5092696;28;19970;-57
2022/04/02 12:22:16;;;;;;;;;;;2.90;99.90;;;;;;5092956;28;19925;-56
2022/04/02 12:24:47;;;;;;;;;;;3.00;99.90;;;;;;5092988;28;19943;-56
2022/04/02 12:27:16;;;;;;;;;;;2.80;99.90;;;;;;5088150;28;19924;-56
2022/04/02 12:29:46;;;;;;;;;;;2.90;99.90;;;;;;5091474;28;20286;-56
2022/04/02 12:32:14;;;;;;;;;;;2.90;99.90;;;;;;5088118;28;20401;-56
2022/04/02 12:34:42;;;;;;;;;;;3.20;99.90;;;;;;5090957;28;20343;-57
2022/04/02 12:37:09;;;;;;;;;;;3.40;99.90;;;;;;5091389;28;19928;-56
2022/04/02 12:39:36;;;;;;;;;;;3.50;99.90;;;;;;5090406;28;19940;-56
2022/04/02 12:42:02;;;;;;;;;;;3.50;99.90;;;;;;5091836;28;19928;-57
2022/04/02 12:44:29;;;;;;;;;;;3.50;99.90;;;;;;5084169;28;20303;-57
2022/04/02 12:47:08;;;;;;;;;;;3.50;99.90;;;;;;5083998;28;19954;-57
2022/04/02 12:49:37;;;;;;;;;;;3.50;99.90;;;;;;5090418;28;19932;-57
2022/04/02 12:52:09;;;;;;;;;;;3.70;99.90;;;;;;5082357;28;19924;-56
2022/04/02 12:54:36;;;;;;;;;;;3.70;99.90;;;;;;5087138;28;19928;-56
2022/04/02 12:57:11;;;;;;;;;;;3.80;99.90;;;;;;5080470;28;19928;-56
2022/04/02 12:59:42;;;;;;;;;;;4.10;99.90;;;;;;5083678;28;19936;-56
2022/04/02 13:02:11;;;;;;;;;;;4.20;99.90;;;;;;5087336;28;19963;-57
2022/04/02 13:04:41;;;;;;;;;;;3.90;99.90;;;;;;5090042;28;19935;-56
2022/04/02 13:07:12;;;;;;;;;;;3.80;99.90;;;;;;5088386;28;19954;-56
2022/04/02 13:09:40;;;;;;;;;;;3.80;99.90;;;;;;5090848;28;19931;-57
2022/04/02 13:12:10;;;;;;;;;;;3.90;99.90;;;;;;5087787;28;19939;-56
2022/04/02 13:14:42;;;;;;;;;;;3.90;99.90;;;;;;5086386;28;19950;-56
2022/04/02 13:17:10;;;;;;;;;;;3.90;99.90;;;;;;5083256;28;19924;-56
2022/04/02 13:22:29;;;;;;;;;;;3.80;99.90;;;;;;5089206;28;20297;-56
2022/04/02 13:24:57;;;;;;;;;;;4.20;99.90;;;;;;5093032;28;19934;-56
2022/04/02 13:27:40;;;;;;;;;;;4.10;99.90;;;;;;5088259;28;19949;-55
2022/04/02 13:30:08;;;;;;;;;;;3.80;99.90;;;;;;5093346;28;19931;-56
2022/04/02 13:32:53;;;;;;;;;;;3.70;99.90;;;;;;5084892;28;20382;-56
2022/04/02 13:35:25;;;;;;;;;;;3.70;99.90;;;;;;5086474;28;19924;-55
2022/04/02 13:38:01;;;;;;;;;;;4.10;99.90;;;;;;5085639;28;20015;-56
2022/04/02 13:40:29;;;;;;;;;;;4.10;99.90;;;;;;5082597;28;19924;-56
2022/04/02 13:42:57;;;;;;;;;;;4.00;99.90;;;;;;5083322;28;20018;-56
2022/04/02 13:45:25;;;;;;;;;;;3.70;99.90;;;;;;5083501;28;19929;-57
2022/04/02 13:47:55;;;;;;;;;;;3.70;99.90;;;;;;5085132;28;19974;-56
2022/04/02 13:50:24;;;;;;;;;;;3.50;99.90;;;;;;5082804;28;19924;-56
2022/04/02 13:52:59;;;;;;;;;;;3.60;99.90;;;;;;5089759;28;19924;-56
2022/04/02 13:55:29;;;;;;;;;;;3.60;99.90;;;;;;5089365;28;20382;-56
2022/04/02 13:58:01;;;;;;;;;;;3.60;99.90;;;;;;5086649;28;19928;-56
2022/04/02 14:00:33;;;;;;;;;;;3.70;99.90;;;;;;5087695;28;19979;-56
2022/04/02 14:03:00;;;;;;;;;;;3.60;99.90;;;;;;5081966;28;19982;-56
2022/04/02 14:05:29;;;;;;;;;;;3.50;99.90;;;;;;5086051;28;20368;-56
2022/04/02 14:07:59;;;;;;;;;;;3.40;99.90;;;;;;5093073;28;19932;-57
2022/04/02 14:10:34;;;;;;;;;;;3.50;99.90;;;;;;5087229;28;19924;-57
2022/04/02 14:13:01;;;;;;;;;;;3.60;99.90;;;;;;5090254;28;19955;-56
2022/04/02 14:15:32;;;;;;;;;;;3.60;99.90;;;;;;5089038;28;20389;-56
2022/04/02 14:18:03;;;;;;;;;;;3.50;99.90;;;;;;5085193;28;19931;-57
2022/04/02 14:20:31;;;;;;;;;;;3.50;99.90;;;;;;5089403;28;19981;-56
2022/04/02 14:23:03;;;;;;;;;;;3.70;99.90;;;;;;5092938;28;19924;-58
2022/04/02 14:25:42;;;;;;;;;;;3.30;99.90;;;;;;5084407;28;19932;-57
2022/04/02 14:28:19;;;;;;;;;;;3.50;99.90;;;;;;5086965;28;19924;-56
2022/04/02 14:30:55;;;;;;;;;;;3.80;99.90;;;;;;5085393;28;20304;-57
2022/04/02 14:33:36;;;;;;;;;;;3.70;99.90;;;;;;5092611;28;19934;-56
2022/04/02 14:36:30;;;;;;;;;;;3.70;99.90;;;;;;5092639;28;19924;-56
2022/04/02 14:39:16;;;;;;;;;;;3.90;99.90;;;;;;5083416;28;20093;-56
2022/04/02 14:41:59;;;;;;;;;;;3.80;99.90;;;;;;5090903;28;19924;-56
2022/04/02 14:44:47;;;;;;;;;;;3.90;99.90;;;;;;5090773;28;19931;-56
2022/04/02 14:47:37;;;;;;;;;;;3.60;99.90;;;;;;5083685;28;20589;-57
2022/04/02 14:50:31;;;;;;;;;;;3.50;99.90;;;;;;5033689;28;20044;-57
2022/04/02 14:53:18;;;;;;;;;;;3.30;99.90;;;;;;5084562;28;19931;-56
2022/04/02 14:56:04;;;;;;;;;;;3.40;99.90;;;;;;5076940;28;20448;-57
2022/04/02 14:58:57;;;;;;;;;;;3.30;99.90;;;;;;5084377;28;19932;-56